サンパウロ/グアルーリョス の空港の天気 - METARとTAF

グアルーリョス国際空港 (サンパウロ) ( SBGR / GRU ) - ブラジル サンパウロ州サンパウロ市
飛行場実況気象(Metar)
観測時間08/06 18:00 BRT (08/06 21:00 UTC)
風向・風速南南東 3m/s
視程10km以上
天気現象
なし
気温20℃
湿度64%
気圧1026hPa
METARSBGR 062100Z 15006KT CAVOK 20/13 Q1026
過去の天気等 Google飛行場航空写真 Wunderground天気予報

過去48時間のMETAR

飛行場予報(TAF)
発表時間: 8/06 13:13 BRT (8/06 16:13 UTC)
予報対象時間: 6日15時 BRT ~ 7日21時 BRT
風向・風速東北東 3m/s
視程10km以上
なし
6日15時 BRT ~ 6日17時 BRT に徐々に
風向・風速東南東 5m/s
6日17時 BRT ~ 6日19時 BRT に徐々に
風向・風速南東 4m/s
視程10km以上
少しの雲 雲底高度 610m
6日21時 BRT ~ 6日23時 BRT に徐々に
風向・風速東南東 2m/s
視程8000m
なし
7日0時 BRT ~ 7日2時 BRT に徐々に
視程4000m
天気現象もや
なし
7日5時 BRT から 確率 30% で
視程2000m
天気現象散在した霧 もや
全天の8割程度の雲 雲底高度 120m
7日8時 BRT ~ 7日10時 BRT に徐々に
風向・風速東北東 4m/s
7日10時 BRT ~ 7日12時 BRT に徐々に
視程10km以上
なし
7日14時 BRT ~ 7日16時 BRT に徐々に
風向・風速東南東 3m/s
7日16時 BRT ~ 7日18時 BRT に徐々に
風向・風速南南東 4m/s
視程10km以上
全天の4割程度の雲 雲底高度 520m
TAF SBGR 061613Z 0618/0724 07005KT CAVOK TN11/0709Z TX24/0718Z
BECMG 0618/0620 11010KT
BECMG 0620/0622 14007KT 9999 FEW020
BECMG 0700/0702 11004KT 8000 NSC
BECMG 0703/0705 4000 BR NSC
PROB30 0708/0711 2000 BCFG BR BKN004
BECMG 0711/0713 06008KT
BECMG 0713/0715 CAVOK
BECMG 0717/0719 11005KT
BECMG 0719/0721 15007KT 9999 SCT017 RMK PGO